This is the latest recevied weather packets stored in our database for station/object NE1CU. If no packets are shown the sender has not sent any weather packets the latest 1 day(s).
| Time | Temp. | Humidity | Pressure | Rain* | Wind** | Luminosity | Snow |
|---|---|---|---|---|---|---|---|
| 1778069854 | 16.67° C | 78% | 1010.5 hPa | 0 mm | - | 182 W/m² | - |
| 1778068643 | 15.56° C | 80% | 1010.3 hPa | 0 mm | - | 134 W/m² | - |
| 1778067736 | 15.56° C | 82% | 1010.3 hPa | 0 mm | - | 112 W/m² | - |
| 1778067434 | 15° C | 83% | 1010.3 hPa | 0 mm | - | 100 W/m² | - |
| 1778067131 | 15° C | 84% | 1010.3 hPa | 0 mm | - | 97 W/m² | - |
| 1778065315 | 14.44° C | 85% | 1010.5 hPa | 0 mm | - | 52 W/m² | - |
| 1778064708 | 14.44° C | 86% | 1010.5 hPa | 0 mm | - | 74 W/m² | - |
| 1778062286 | 13.33° C | 88% | 1010.3 hPa | 0 mm | - | 17 W/m² | - |
| 1778061985 | 13.33° C | 87% | 1010.2 hPa | 0 mm | - | 13 W/m² | - |
| 1778061381 | 13.33° C | 87% | 1010.2 hPa | 0 mm | - | 7 W/m² | - |
| 1778060775 | 13.33° C | 87% | 1010.1 hPa | 0 mm | - | 3 W/m² | - |
| 1778059261 | 13.33° C | 86% | 1010.2 hPa | 0 mm | - | 0 W/m² | - |
| 1778058355 | 13.33° C | 86% | 1010.4 hPa | 0 mm | - | 0 W/m² | - |
| 1778058051 | 13.33° C | 86% | 1010.2 hPa | 0 mm | - | 0 W/m² | - |
| 1778057748 | 13.33° C | 86% | 1010.3 hPa | 0 mm | - | 0 W/m² | - |
| 1778056837 | 13.33° C | 85% | 1010.5 hPa | 0 mm | - | 0 W/m² | - |
| 1778056535 | 13.89° C | 85% | 1010.6 hPa | 0 mm | - | 0 W/m² | - |
| 1778055929 | 13.89° C | 85% | 1010.3 hPa | 0 mm | - | 0 W/m² | - |
| 1778055020 | 13.89° C | 84% | 1010.7 hPa | 0 mm | - | 0 W/m² | - |
| 1778054415 | 13.89° C | 84% | 1010.3 hPa | 0 mm | - | 0 W/m² | - |
| 1778053506 | 13.89° C | 83% | 1010.5 hPa | 0 mm | - | 0 W/m² | - |
| 1778052901 | 13.89° C | 83% | 1010.6 hPa | 0 mm | - | 0 W/m² | - |
| 1778052598 | 13.89° C | 83% | 1010.7 hPa | 0 mm | - | 0 W/m² | - |
| 1778052295 | 13.89° C | 83% | 1010.7 hPa | 0 mm | - | 0 W/m² | - |
| 1778051993 | 14.44° C | 82% | 1010.5 hPa | 0 mm | - | 0 W/m² | - |
* Rain latest hour (hover to see other rain measurements)
** Current wind speed in m/s (hover to see current wind gust speed)